createdAt,value
2023-01-18T00:10:59.198Z,41.30
2023-01-18T00:26:00.652Z,41.10
2023-01-18T00:41:02.122Z,41.20
2023-01-18T00:56:03.590Z,41.20
2023-01-18T01:11:05.055Z,41.20
2023-01-18T01:26:06.575Z,41.30
2023-01-18T01:41:08.026Z,41.20
2023-01-18T01:56:09.486Z,41.30
2023-01-18T02:11:10.936Z,41.30
2023-01-18T02:26:12.404Z,41.30
2023-01-18T02:41:13.859Z,41.30
2023-01-18T02:56:15.328Z,41.40
2023-01-18T03:11:16.793Z,41.30
2023-01-18T03:26:18.293Z,41.30
2023-01-18T03:41:19.772Z,41.30
2023-01-18T03:56:21.316Z,41.30
2023-01-18T04:11:22.759Z,41.30
2023-01-18T04:26:24.218Z,41.30
2023-01-18T04:41:25.671Z,41.20
2023-01-18T04:56:27.145Z,41.30
2023-01-18T05:11:28.607Z,41.20
2023-01-18T05:26:30.081Z,41.10
2023-01-18T05:41:31.587Z,41.30
2023-01-18T05:56:33.055Z,40.80
2023-01-18T06:11:34.531Z,40.70
2023-01-18T06:26:36.013Z,40.70
2023-01-18T06:41:37.488Z,40.60
2023-01-18T06:56:38.930Z,40.60
2023-01-18T07:11:40.399Z,40.40
2023-01-18T07:26:41.852Z,40.00
2023-01-18T07:41:43.368Z,40.10
2023-01-18T07:56:44.845Z,40.10
2023-01-18T08:11:46.356Z,40.00
2023-01-18T08:26:47.807Z,40.10
2023-01-18T08:41:49.253Z,40.10
2023-01-18T08:56:50.719Z,40.10
2023-01-18T09:11:52.174Z,40.00
2023-01-18T09:26:53.621Z,39.90
2023-01-18T09:41:55.166Z,39.70
2023-01-18T09:56:56.647Z,39.60
2023-01-18T10:11:58.104Z,39.20
2023-01-18T10:26:59.571Z,38.70
2023-01-18T10:42:01.034Z,38.40
2023-01-18T10:57:02.495Z,38.10
2023-01-18T11:12:04.046Z,38.30
2023-01-18T11:27:05.518Z,38.20
2023-01-18T11:42:06.991Z,35.80
2023-01-18T11:57:08.437Z,33.10
2023-01-18T12:12:19.082Z,31.20
2023-01-18T12:27:21.130Z,30.30
2023-01-18T12:42:22.599Z,28.90
2023-01-18T12:57:24.072Z,28.00
2023-01-18T13:12:25.682Z,27.00
2023-01-18T13:27:27.138Z,26.70
2023-01-18T13:42:28.609Z,26.30
2023-01-18T13:57:30.058Z,26.60
2023-01-18T14:12:31.532Z,27.20
2023-01-18T14:27:33.112Z,27.90
2023-01-18T14:42:35.690Z,28.40
2023-01-18T14:57:37.219Z,29.00
2023-01-18T15:12:38.697Z,29.50
2023-01-18T15:27:42.194Z,29.80
2023-01-18T15:42:43.716Z,30.10
2023-01-18T15:57:45.179Z,30.50
2023-01-18T16:12:46.642Z,31.10
2023-01-18T16:27:48.122Z,31.40
2023-01-18T16:42:49.611Z,32.00
2023-01-18T16:57:56.534Z,32.30
2023-01-18T17:12:58.422Z,32.60
2023-01-18T17:28:00.136Z,32.80
2023-01-18T17:43:01.925Z,33.20
2023-01-18T17:58:03.618Z,33.40
2023-01-18T18:13:05.135Z,33.70
2023-01-18T18:28:06.597Z,33.90
2023-01-18T18:43:08.437Z,34.00
2023-01-18T18:58:10.129Z,34.00
2023-01-18T19:13:11.590Z,34.10
2023-01-18T19:28:13.130Z,34.00
2023-01-18T19:43:14.612Z,34.10
2023-01-18T19:58:16.080Z,34.20
2023-01-18T20:13:17.534Z,34.20
2023-01-18T20:28:19.005Z,34.50
2023-01-18T20:43:20.458Z,34.70
2023-01-18T20:58:21.913Z,34.70
2023-01-18T21:13:23.371Z,34.70
2023-01-18T21:28:24.819Z,34.70
2023-01-18T21:43:26.278Z,34.70
2023-01-18T21:58:27.793Z,34.70
2023-01-18T22:13:29.249Z,34.70
2023-01-18T22:28:30.731Z,34.80
2023-01-18T22:43:32.227Z,34.80
2023-01-18T22:58:33.703Z,34.80
2023-01-18T23:13:35.167Z,34.70
2023-01-18T23:28:37.165Z,34.50
2023-01-18T23:43:38.622Z,34.50
2023-01-18T23:58:40.100Z,34.40
